Terminal Aerodrome Forecast
Issued by NWS Goodland, KS

Home | Current Version | Previous Version | Text Only | Print | Product List | Glossary On
Versions: 1 2 3 4 5 6 7 8 9 10 11 12 13 14 15 16 17
000
FTUS43 KGLD 211720
TAFGLD
TAF
KGLD 211720Z 2118/2218 17015G28KT P6SM SKC
     FM220000 20010G16KT P6SM BKN150
     FM220800 20010KT 3SM BR SCT010
     FM221200 25010KT P6SM VCSH SCT050 BKN100=

USA.gov is the U.S. government's official web portal to all federal, state and local government web resources and services.